This is the latest recevied weather packets stored in our database for station/object DL7HMX-13. If no packets are shown the sender has not sent any weather packets the latest 10 day(s).
| Time | Temp. | Humidity | Pressure | Rain* | Wind** | Luminosity | Snow |
|---|---|---|---|---|---|---|---|
| 1777887022 | 22.78° C | 47% | 1014.6 hPa | 0 mm | - | 573 W/m² | - |
| 1777886424 | 22.22° C | 48% | 1014.6 hPa | 0 mm | - | 573 W/m² | - |
| 1777885827 | 21.67° C | 50% | 1014.8 hPa | 0 mm | - | 582 W/m² | - |
| 1777885230 | 21.11° C | 51% | 1014.8 hPa | 0 mm | - | 561 W/m² | - |
| 1777884617 | 21.67° C | 50% | 1014.9 hPa | 0 mm | - | 557 W/m² | - |
| 1777884021 | 21.11° C | 51% | 1015 hPa | 0 mm | - | 539 W/m² | - |
| 1777883423 | 20.56° C | 52% | 1015 hPa | 0 mm | - | 522 W/m² | - |
| 1777882826 | 21.11° C | 51% | 1015.1 hPa | 0 mm | - | 502 W/m² | - |
| 1777882229 | 20.56° C | 53% | 1015.1 hPa | 0 mm | - | 487 W/m² | - |
| 1777881616 | 20.56° C | 53% | 1015 hPa | 0 mm | - | 453 W/m² | - |
| 1777881019 | 19.44° C | 55% | 1015 hPa | 0 mm | - | 441 W/m² | - |
| 1777880423 | 18.89° C | 57% | 1015.2 hPa | 0 mm | - | 182 W/m² | - |
| 1777879826 | 18.89° C | 57% | 1015.2 hPa | 0 mm | - | 309 W/m² | - |
| 1777879228 | 18.89° C | 57% | 1015.1 hPa | 0 mm | - | 297 W/m² | - |
| 1777878631 | 18.33° C | 58% | 1015.1 hPa | 0 mm | - | 417 W/m² | - |
| 1777878018 | 18.33° C | 59% | 1015 hPa | 0 mm | - | 342 W/m² | - |
| 1777877421 | 18.33° C | 63% | 1014.9 hPa | 0 mm | - | 296 W/m² | - |
| 1777876824 | 17.22° C | 66% | 1014.8 hPa | 0 mm | - | 268 W/m² | - |
| 1777876227 | 15.56° C | 71% | 1014.8 hPa | 0 mm | - | 243 W/m² | - |
| 1777875631 | 15° C | 72% | 1014.8 hPa | 0 mm | - | 215 W/m² | - |
| 1777875016 | 14.44° C | 75% | 1014.8 hPa | 0 mm | - | 192 W/m² | - |
| 1777874419 | 13.33° C | 76% | 1014.9 hPa | 0 mm | - | 142 W/m² | - |
| 1777873822 | 13.33° C | 77% | 1014.8 hPa | 0 mm | - | 85 W/m² | - |
| 1777873226 | 13.33° C | 77% | 1014.8 hPa | 0 mm | - | 97 W/m² | - |
| 1777872630 | 12.78° C | 78% | 1014.8 hPa | 0 mm | - | 92 W/m² | - |
* Rain latest hour (hover to see other rain measurements)
** Current wind speed in m/s (hover to see current wind gust speed)